sensor_id;sensor_type;location;lat;lon;timestamp;P1;durP1;ratioP1;P2;durP2;ratioP2
75634;SDS011;64227;48.724;9.104;2023-07-02T00:00:55;3.47;;;2.38;;
75634;SDS011;64227;48.724;9.104;2023-07-02T00:03:20;2.63;;;2.10;;
75634;SDS011;64227;48.724;9.104;2023-07-02T00:05:47;5.50;;;2.53;;
75634;SDS011;64227;48.724;9.104;2023-07-02T00:08:15;3.15;;;1.98;;
75634;SDS011;64227;48.724;9.104;2023-07-02T00:10:40;4.07;;;2.15;;
75634;SDS011;64227;48.724;9.104;2023-07-02T00:13:05;3.53;;;2.50;;
75634;SDS011;64227;48.724;9.104;2023-07-02T00:15:31;3.15;;;2.17;;
75634;SDS011;64227;48.724;9.104;2023-07-02T00:17:56;1.92;;;1.80;;
75634;SDS011;64227;48.724;9.104;2023-07-02T00:20:22;3.92;;;2.60;;
75634;SDS011;64227;48.724;9.104;2023-07-02T00:22:48;2.75;;;2.05;;
75634;SDS011;64227;48.724;9.104;2023-07-02T00:25:14;3.20;;;2.05;;
75634;SDS011;64227;48.724;9.104;2023-07-02T00:27:40;3.22;;;2.55;;
75634;SDS011;64227;48.724;9.104;2023-07-02T00:30:05;3.53;;;2.40;;
75634;SDS011;64227;48.724;9.104;2023-07-02T00:32:31;3.45;;;2.13;;
75634;SDS011;64227;48.724;9.104;2023-07-02T00:34:56;2.17;;;1.85;;
75634;SDS011;64227;48.724;9.104;2023-07-02T00:37:22;4.30;;;2.35;;
75634;SDS011;64227;48.724;9.104;2023-07-02T00:39:47;3.33;;;1.92;;
75634;SDS011;64227;48.724;9.104;2023-07-02T00:42:13;2.10;;;1.90;;
75634;SDS011;64227;48.724;9.104;2023-07-02T00:44:39;3.25;;;2.10;;
75634;SDS011;64227;48.724;9.104;2023-07-02T00:47:09;4.35;;;2.15;;
75634;SDS011;64227;48.724;9.104;2023-07-02T00:49:34;3.05;;;2.53;;
75634;SDS011;64227;48.724;9.104;2023-07-02T00:52:00;2.22;;;1.95;;
75634;SDS011;64227;48.724;9.104;2023-07-02T00:54:27;3.40;;;2.05;;
75634;SDS011;64227;48.724;9.104;2023-07-02T00:56:53;2.17;;;1.58;;
75634;SDS011;64227;48.724;9.104;2023-07-02T00:59:19;2.38;;;1.95;;
75634;SDS011;64227;48.724;9.104;2023-07-02T01:01:44;2.50;;;2.20;;
75634;SDS011;64227;48.724;9.104;2023-07-02T01:04:14;2.10;;;1.92;;
75634;SDS011;64227;48.724;9.104;2023-07-02T01:06:42;3.72;;;2.30;;
75634;SDS011;64227;48.724;9.104;2023-07-02T01:09:08;2.65;;;2.03;;
75634;SDS011;64227;48.724;9.104;2023-07-02T01:11:43;3.15;;;1.80;;
75634;SDS011;64227;48.724;9.104;2023-07-02T01:14:15;2.25;;;1.73;;
75634;SDS011;64227;48.724;9.104;2023-07-02T01:16:43;2.10;;;1.90;;
75634;SDS011;64227;48.724;9.104;2023-07-02T01:19:16;2.10;;;1.90;;
75634;SDS011;64227;48.724;9.104;2023-07-02T01:22:05;2.22;;;1.80;;
75634;SDS011;64227;48.724;9.104;2023-07-02T01:24:31;4.45;;;1.80;;
75634;SDS011;64227;48.724;9.104;2023-07-02T01:26:56;4.20;;;2.03;;
75634;SDS011;64227;48.724;9.104;2023-07-02T01:29:26;2.20;;;1.95;;
75634;SDS011;64227;48.724;9.104;2023-07-02T01:31:54;1.95;;;1.85;;
75634;SDS011;64227;48.724;9.104;2023-07-02T01:34:19;2.63;;;1.85;;
75634;SDS011;64227;48.724;9.104;2023-07-02T01:36:44;3.58;;;2.20;;
75634;SDS011;64227;48.724;9.104;2023-07-02T01:39:09;2.05;;;1.85;;
75634;SDS011;64227;48.724;9.104;2023-07-02T01:41:37;2.22;;;2.03;;
75634;SDS011;64227;48.724;9.104;2023-07-02T01:44:15;2.55;;;2.25;;
75634;SDS011;64227;48.724;9.104;2023-07-02T01:46:40;2.60;;;2.20;;
75634;SDS011;64227;48.724;9.104;2023-07-02T01:49:06;3.80;;;1.88;;
75634;SDS011;64227;48.724;9.104;2023-07-02T01:51:31;2.10;;;1.80;;
75634;SDS011;64227;48.724;9.104;2023-07-02T01:53:57;2.00;;;1.88;;
75634;SDS011;64227;48.724;9.104;2023-07-02T01:56:22;2.40;;;1.92;;
75634;SDS011;64227;48.724;9.104;2023-07-02T01:58:47;2.78;;;1.95;;
75634;SDS011;64227;48.724;9.104;2023-07-02T02:01:13;1.77;;;1.67;;
75634;SDS011;64227;48.724;9.104;2023-07-02T02:03:38;1.92;;;1.80;;
75634;SDS011;64227;48.724;9.104;2023-07-02T02:06:03;2.47;;;1.80;;
75634;SDS011;64227;48.724;9.104;2023-07-02T02:08:29;1.95;;;1.85;;
75634;SDS011;64227;48.724;9.104;2023-07-02T02:10:54;2.40;;;1.98;;
75634;SDS011;64227;48.724;9.104;2023-07-02T02:13:19;2.90;;;1.90;;
75634;SDS011;64227;48.724;9.104;2023-07-02T02:15:44;2.53;;;1.80;;
75634;SDS011;64227;48.724;9.104;2023-07-02T02:18:10;1.67;;;1.58;;
75634;SDS011;64227;48.724;9.104;2023-07-02T02:20:35;1.52;;;1.42;;
75634;SDS011;64227;48.724;9.104;2023-07-02T02:23:00;1.48;;;1.38;;
75634;SDS011;64227;48.724;9.104;2023-07-02T02:25:26;2.65;;;1.70;;
75634;SDS011;64227;48.724;9.104;2023-07-02T02:27:51;2.92;;;1.70;;
75634;SDS011;64227;48.724;9.104;2023-07-02T02:30:17;2.40;;;1.90;;
75634;SDS011;64227;48.724;9.104;2023-07-02T02:32:42;2.28;;;1.50;;
75634;SDS011;64227;48.724;9.104;2023-07-02T02:35:07;2.58;;;1.70;;
75634;SDS011;64227;48.724;9.104;2023-07-02T02:37:34;3.20;;;1.90;;
75634;SDS011;64227;48.724;9.104;2023-07-02T02:40:03;2.30;;;1.98;;
75634;SDS011;64227;48.724;9.104;2023-07-02T02:42:30;2.88;;;1.98;;
75634;SDS011;64227;48.724;9.104;2023-07-02T02:44:56;2.15;;;1.67;;
75634;SDS011;64227;48.724;9.104;2023-07-02T02:47:21;2.50;;;1.48;;
75634;SDS011;64227;48.724;9.104;2023-07-02T02:49:46;1.48;;;1.38;;
75634;SDS011;64227;48.724;9.104;2023-07-02T02:52:12;1.73;;;1.42;;
75634;SDS011;64227;48.724;9.104;2023-07-02T02:54:39;3.55;;;1.90;;
75634;SDS011;64227;48.724;9.104;2023-07-02T02:57:04;1.70;;;1.60;;
75634;SDS011;64227;48.724;9.104;2023-07-02T02:59:30;3.80;;;1.70;;
75634;SDS011;64227;48.724;9.104;2023-07-02T03:01:55;2.90;;;1.98;;
75634;SDS011;64227;48.724;9.104;2023-07-02T03:04:20;3.97;;;1.85;;
75634;SDS011;64227;48.724;9.104;2023-07-02T03:06:48;2.10;;;1.73;;
75634;SDS011;64227;48.724;9.104;2023-07-02T03:09:14;1.80;;;1.33;;
75634;SDS011;64227;48.724;9.104;2023-07-02T03:11:39;2.42;;;1.92;;
75634;SDS011;64227;48.724;9.104;2023-07-02T03:14:04;2.85;;;1.73;;
75634;SDS011;64227;48.724;9.104;2023-07-02T03:16:30;2.45;;;1.80;;
75634;SDS011;64227;48.724;9.104;2023-07-02T03:18:55;2.88;;;2.00;;
75634;SDS011;64227;48.724;9.104;2023-07-02T03:21:20;3.47;;;1.77;;
75634;SDS011;64227;48.724;9.104;2023-07-02T03:23:46;3.67;;;1.83;;
75634;SDS011;64227;48.724;9.104;2023-07-02T03:26:11;3.33;;;1.73;;
75634;SDS011;64227;48.724;9.104;2023-07-02T03:28:36;3.08;;;1.75;;
75634;SDS011;64227;48.724;9.104;2023-07-02T03:31:02;3.65;;;1.88;;
75634;SDS011;64227;48.724;9.104;2023-07-02T03:33:27;3.22;;;1.90;;
75634;SDS011;64227;48.724;9.104;2023-07-02T03:35:52;2.55;;;2.00;;
75634;SDS011;64227;48.724;9.104;2023-07-02T03:38:18;1.73;;;1.63;;
75634;SDS011;64227;48.724;9.104;2023-07-02T03:40:44;3.58;;;2.17;;
75634;SDS011;64227;48.724;9.104;2023-07-02T03:43:09;3.40;;;2.00;;
75634;SDS011;64227;48.724;9.104;2023-07-02T03:45:35;4.38;;;2.25;;
75634;SDS011;64227;48.724;9.104;2023-07-02T03:48:00;4.80;;;2.38;;
75634;SDS011;64227;48.724;9.104;2023-07-02T03:50:25;3.75;;;2.13;;
75634;SDS011;64227;48.724;9.104;2023-07-02T03:52:51;2.63;;;1.98;;
75634;SDS011;64227;48.724;9.104;2023-07-02T03:55:16;2.58;;;2.10;;
75634;SDS011;64227;48.724;9.104;2023-07-02T03:57:42;4.55;;;2.10;;
75634;SDS011;64227;48.724;9.104;2023-07-02T04:00:07;2.42;;;2.10;;
75634;SDS011;64227;48.724;9.104;2023-07-02T04:02:35;4.93;;;2.10;;
75634;SDS011;64227;48.724;9.104;2023-07-02T04:05:00;4.55;;;2.00;;
75634;SDS011;64227;48.724;9.104;2023-07-02T04:07:26;3.92;;;2.13;;
75634;SDS011;64227;48.724;9.104;2023-07-02T04:09:51;3.50;;;2.35;;
75634;SDS011;64227;48.724;9.104;2023-07-02T04:12:16;3.75;;;2.00;;
75634;SDS011;64227;48.724;9.104;2023-07-02T04:14:42;3.60;;;2.22;;
75634;SDS011;64227;48.724;9.104;2023-07-02T04:17:07;4.03;;;2.40;;
75634;SDS011;64227;48.724;9.104;2023-07-02T04:19:33;5.47;;;2.03;;
75634;SDS011;64227;48.724;9.104;2023-07-02T04:21:58;3.45;;;2.10;;
75634;SDS011;64227;48.724;9.104;2023-07-02T04:24:23;6.93;;;2.85;;
75634;SDS011;64227;48.724;9.104;2023-07-02T04:26:50;3.38;;;2.28;;
75634;SDS011;64227;48.724;9.104;2023-07-02T04:29:15;6.00;;;2.72;;
75634;SDS011;64227;48.724;9.104;2023-07-02T04:31:41;3.78;;;2.28;;
75634;SDS011;64227;48.724;9.104;2023-07-02T04:34:06;3.53;;;2.50;;
75634;SDS011;64227;48.724;9.104;2023-07-02T04:36:31;4.38;;;2.38;;
75634;SDS011;64227;48.724;9.104;2023-07-02T04:38:57;3.83;;;2.22;;
75634;SDS011;64227;48.724;9.104;2023-07-02T04:41:22;4.07;;;2.10;;
75634;SDS011;64227;48.724;9.104;2023-07-02T04:43:48;3.38;;;2.30;;
75634;SDS011;64227;48.724;9.104;2023-07-02T04:46:13;6.40;;;2.60;;
75634;SDS011;64227;48.724;9.104;2023-07-02T04:48:39;3.90;;;2.20;;
75634;SDS011;64227;48.724;9.104;2023-07-02T04:51:04;4.38;;;2.22;;
75634;SDS011;64227;48.724;9.104;2023-07-02T04:53:29;2.90;;;2.03;;
75634;SDS011;64227;48.724;9.104;2023-07-02T04:55:55;3.22;;;2.10;;
75634;SDS011;64227;48.724;9.104;2023-07-02T04:58:22;4.28;;;2.20;;
75634;SDS011;64227;48.724;9.104;2023-07-02T05:00:47;3.45;;;2.05;;
75634;SDS011;64227;48.724;9.104;2023-07-02T05:03:13;4.78;;;2.10;;
75634;SDS011;64227;48.724;9.104;2023-07-02T05:05:38;6.50;;;2.60;;
75634;SDS011;64227;48.724;9.104;2023-07-02T05:08:03;5.57;;;2.42;;
75634;SDS011;64227;48.724;9.104;2023-07-02T05:10:29;4.72;;;2.67;;
75634;SDS011;64227;48.724;9.104;2023-07-02T05:12:54;4.22;;;2.40;;
75634;SDS011;64227;48.724;9.104;2023-07-02T05:15:20;7.57;;;2.55;;
75634;SDS011;64227;48.724;9.104;2023-07-02T05:17:45;4.15;;;2.63;;
75634;SDS011;64227;48.724;9.104;2023-07-02T05:20:10;3.85;;;2.40;;
75634;SDS011;64227;48.724;9.104;2023-07-02T05:22:36;5.22;;;2.58;;
75634;SDS011;64227;48.724;9.104;2023-07-02T05:25:01;2.70;;;2.10;;
75634;SDS011;64227;48.724;9.104;2023-07-02T05:27:27;3.78;;;2.25;;
75634;SDS011;64227;48.724;9.104;2023-07-02T05:29:52;7.72;;;2.60;;
75634;SDS011;64227;48.724;9.104;2023-07-02T05:32:17;4.35;;;2.40;;
75634;SDS011;64227;48.724;9.104;2023-07-02T05:34:42;3.92;;;2.78;;
75634;SDS011;64227;48.724;9.104;2023-07-02T05:37:08;3.50;;;2.40;;
75634;SDS011;64227;48.724;9.104;2023-07-02T05:39:33;5.97;;;2.75;;
75634;SDS011;64227;48.724;9.104;2023-07-02T05:41:59;5.28;;;2.97;;
75634;SDS011;64227;48.724;9.104;2023-07-02T05:44:24;4.53;;;2.65;;
75634;SDS011;64227;48.724;9.104;2023-07-02T05:46:49;5.50;;;2.70;;
75634;SDS011;64227;48.724;9.104;2023-07-02T05:49:15;4.45;;;2.60;;
75634;SDS011;64227;48.724;9.104;2023-07-02T05:51:40;3.75;;;2.50;;
75634;SDS011;64227;48.724;9.104;2023-07-02T05:54:06;5.63;;;3.05;;
75634;SDS011;64227;48.724;9.104;2023-07-02T05:56:31;5.45;;;3.13;;
75634;SDS011;64227;48.724;9.104;2023-07-02T05:58:56;5.18;;;2.90;;
75634;SDS011;64227;48.724;9.104;2023-07-02T06:01:22;6.18;;;2.67;;
75634;SDS011;64227;48.724;9.104;2023-07-02T06:03:49;5.78;;;2.97;;
75634;SDS011;64227;48.724;9.104;2023-07-02T06:06:14;5.40;;;2.80;;
75634;SDS011;64227;48.724;9.104;2023-07-02T06:08:40;8.52;;;3.55;;
75634;SDS011;64227;48.724;9.104;2023-07-02T06:11:05;8.67;;;3.63;;
75634;SDS011;64227;48.724;9.104;2023-07-02T06:13:30;5.95;;;3.35;;
75634;SDS011;64227;48.724;9.104;2023-07-02T06:15:56;6.88;;;3.67;;
75634;SDS011;64227;48.724;9.104;2023-07-02T06:18:22;8.18;;;3.58;;
75634;SDS011;64227;48.724;9.104;2023-07-02T06:20:47;9.30;;;4.25;;
75634;SDS011;64227;48.724;9.104;2023-07-02T06:23:12;10.70;;;5.13;;
75634;SDS011;64227;48.724;9.104;2023-07-02T06:25:38;7.85;;;3.80;;
75634;SDS011;64227;48.724;9.104;2023-07-02T06:28:03;7.55;;;3.80;;
75634;SDS011;64227;48.724;9.104;2023-07-02T06:30:28;9.18;;;4.55;;
75634;SDS011;64227;48.724;9.104;2023-07-02T06:32:54;10.63;;;5.53;;
75634;SDS011;64227;48.724;9.104;2023-07-02T06:35:20;7.47;;;4.50;;
75634;SDS011;64227;48.724;9.104;2023-07-02T06:37:45;9.35;;;4.78;;
75634;SDS011;64227;48.724;9.104;2023-07-02T06:40:11;9.30;;;4.82;;
75634;SDS011;64227;48.724;9.104;2023-07-02T06:42:36;12.48;;;5.80;;
75634;SDS011;64227;48.724;9.104;2023-07-02T06:45:02;9.93;;;5.35;;
75634;SDS011;64227;48.724;9.104;2023-07-02T06:47:28;11.57;;;5.38;;
75634;SDS011;64227;48.724;9.104;2023-07-02T06:49:53;10.25;;;5.40;;
75634;SDS011;64227;48.724;9.104;2023-07-02T06:52:18;9.10;;;4.97;;
75634;SDS011;64227;48.724;9.104;2023-07-02T06:54:44;7.95;;;4.53;;
75634;SDS011;64227;48.724;9.104;2023-07-02T06:57:09;10.45;;;5.50;;
75634;SDS011;64227;48.724;9.104;2023-07-02T06:59:35;9.63;;;5.57;;
75634;SDS011;64227;48.724;9.104;2023-07-02T07:02:00;13.18;;;4.95;;
75634;SDS011;64227;48.724;9.104;2023-07-02T07:04:26;10.90;;;6.18;;
75634;SDS011;64227;48.724;9.104;2023-07-02T07:06:52;11.77;;;5.82;;
75634;SDS011;64227;48.724;9.104;2023-07-02T07:09:18;10.52;;;5.65;;
75634;SDS011;64227;48.724;9.104;2023-07-02T07:11:44;11.68;;;5.53;;
75634;SDS011;64227;48.724;9.104;2023-07-02T07:14:09;12.77;;;6.25;;
75634;SDS011;64227;48.724;9.104;2023-07-02T07:16:34;13.50;;;7.97;;
75634;SDS011;64227;48.724;9.104;2023-07-02T07:19:00;14.10;;;6.88;;
75634;SDS011;64227;48.724;9.104;2023-07-02T07:21:26;16.02;;;6.43;;
75634;SDS011;64227;48.724;9.104;2023-07-02T07:23:51;12.00;;;6.35;;
75634;SDS011;64227;48.724;9.104;2023-07-02T07:26:16;15.50;;;7.28;;
75634;SDS011;64227;48.724;9.104;2023-07-02T07:28:41;14.40;;;7.43;;
75634;SDS011;64227;48.724;9.104;2023-07-02T07:31:07;13.93;;;7.43;;
75634;SDS011;64227;48.724;9.104;2023-07-02T07:33:32;17.63;;;7.18;;
75634;SDS011;64227;48.724;9.104;2023-07-02T07:35:57;14.15;;;6.38;;
75634;SDS011;64227;48.724;9.104;2023-07-02T07:38:23;18.52;;;7.53;;
75634;SDS011;64227;48.724;9.104;2023-07-02T07:40:48;14.38;;;7.65;;
75634;SDS011;64227;48.724;9.104;2023-07-02T07:43:13;13.82;;;6.35;;
75634;SDS011;64227;48.724;9.104;2023-07-02T07:45:39;18.70;;;8.15;;
75634;SDS011;64227;48.724;9.104;2023-07-02T07:48:05;13.35;;;7.95;;
75634;SDS011;64227;48.724;9.104;2023-07-02T07:50:30;15.82;;;7.95;;
75634;SDS011;64227;48.724;9.104;2023-07-02T07:52:56;15.98;;;8.45;;
75634;SDS011;64227;48.724;9.104;2023-07-02T07:55:21;15.70;;;8.20;;
75634;SDS011;64227;48.724;9.104;2023-07-02T07:57:46;14.45;;;7.90;;
75634;SDS011;64227;48.724;9.104;2023-07-02T08:00:12;15.38;;;8.18;;
75634;SDS011;64227;48.724;9.104;2023-07-02T08:02:38;14.07;;;7.20;;
75634;SDS011;64227;48.724;9.104;2023-07-02T08:05:03;13.25;;;7.53;;
75634;SDS011;64227;48.724;9.104;2023-07-02T08:07:30;12.45;;;8.02;;
75634;SDS011;64227;48.724;9.104;2023-07-02T08:09:56;13.80;;;7.75;;
75634;SDS011;64227;48.724;9.104;2023-07-02T08:12:21;13.32;;;7.82;;
75634;SDS011;64227;48.724;9.104;2023-07-02T08:14:47;12.98;;;7.55;;
75634;SDS011;64227;48.724;9.104;2023-07-02T08:17:12;14.20;;;7.88;;
75634;SDS011;64227;48.724;9.104;2023-07-02T08:19:37;13.68;;;7.60;;
75634;SDS011;64227;48.724;9.104;2023-07-02T08:22:03;15.90;;;8.25;;
75634;SDS011;64227;48.724;9.104;2023-07-02T08:24:28;13.98;;;7.78;;
75634;SDS011;64227;48.724;9.104;2023-07-02T08:26:55;14.77;;;8.15;;
75634;SDS011;64227;48.724;9.104;2023-07-02T08:29:21;16.10;;;8.77;;
75634;SDS011;64227;48.724;9.104;2023-07-02T08:31:46;13.60;;;7.68;;
75634;SDS011;64227;48.724;9.104;2023-07-02T08:34:11;15.23;;;7.60;;
75634;SDS011;64227;48.724;9.104;2023-07-02T08:36:37;16.52;;;9.13;;
75634;SDS011;64227;48.724;9.104;2023-07-02T08:39:03;13.65;;;7.75;;
75634;SDS011;64227;48.724;9.104;2023-07-02T08:41:29;14.23;;;7.50;;
75634;SDS011;64227;48.724;9.104;2023-07-02T08:43:55;15.10;;;8.38;;
75634;SDS011;64227;48.724;9.104;2023-07-02T08:46:20;13.82;;;8.57;;
75634;SDS011;64227;48.724;9.104;2023-07-02T08:48:46;11.68;;;7.80;;
75634;SDS011;64227;48.724;9.104;2023-07-02T08:51:12;13.18;;;7.65;;
75634;SDS011;64227;48.724;9.104;2023-07-02T08:53:37;12.85;;;7.93;;
75634;SDS011;64227;48.724;9.104;2023-07-02T08:56:03;12.60;;;7.60;;
75634;SDS011;64227;48.724;9.104;2023-07-02T08:58:28;17.38;;;8.20;;
75634;SDS011;64227;48.724;9.104;2023-07-02T09:01:04;15.10;;;8.05;;
75634;SDS011;64227;48.724;9.104;2023-07-02T09:03:33;11.45;;;7.30;;
75634;SDS011;64227;48.724;9.104;2023-07-02T09:05:58;13.73;;;7.38;;
75634;SDS011;64227;48.724;9.104;2023-07-02T09:08:24;11.85;;;7.40;;
75634;SDS011;64227;48.724;9.104;2023-07-02T09:10:50;12.60;;;6.80;;
75634;SDS011;64227;48.724;9.104;2023-07-02T09:13:15;12.95;;;7.00;;
75634;SDS011;64227;48.724;9.104;2023-07-02T09:15:41;11.65;;;7.03;;
75634;SDS011;64227;48.724;9.104;2023-07-02T09:20:41;12.27;;;6.68;;
75634;SDS011;64227;48.724;9.104;2023-07-02T09:23:07;13.75;;;7.40;;
75634;SDS011;64227;48.724;9.104;2023-07-02T09:25:39;15.15;;;7.40;;
75634;SDS011;64227;48.724;9.104;2023-07-02T09:28:18;10.55;;;7.20;;
75634;SDS011;64227;48.724;9.104;2023-07-02T09:30:55;10.73;;;6.38;;
75634;SDS011;64227;48.724;9.104;2023-07-02T09:33:25;13.52;;;7.10;;
75634;SDS011;64227;48.724;9.104;2023-07-02T09:35:52;10.45;;;6.68;;
75634;SDS011;64227;48.724;9.104;2023-07-02T09:38:17;11.13;;;7.22;;
75634;SDS011;64227;48.724;9.104;2023-07-02T09:40:45;12.85;;;8.10;;
75634;SDS011;64227;48.724;9.104;2023-07-02T09:43:12;10.50;;;7.13;;
75634;SDS011;64227;48.724;9.104;2023-07-02T09:45:40;13.00;;;7.07;;
75634;SDS011;64227;48.724;9.104;2023-07-02T09:48:07;10.55;;;7.15;;
75634;SDS011;64227;48.724;9.104;2023-07-02T09:50:33;11.15;;;7.30;;
75634;SDS011;64227;48.724;9.104;2023-07-02T09:52:59;13.55;;;8.02;;
75634;SDS011;64227;48.724;9.104;2023-07-02T09:55:25;13.77;;;8.00;;
75634;SDS011;64227;48.724;9.104;2023-07-02T09:57:50;14.55;;;9.05;;
75634;SDS011;64227;48.724;9.104;2023-07-02T10:00:15;17.30;;;9.55;;
75634;SDS011;64227;48.724;9.104;2023-07-02T10:02:41;18.38;;;9.85;;
75634;SDS011;64227;48.724;9.104;2023-07-02T10:05:06;16.23;;;8.98;;
75634;SDS011;64227;48.724;9.104;2023-07-02T10:07:32;13.55;;;9.32;;
75634;SDS011;64227;48.724;9.104;2023-07-02T10:09:58;17.75;;;10.15;;
75634;SDS011;64227;48.724;9.104;2023-07-02T10:12:27;15.80;;;10.05;;
75634;SDS011;64227;48.724;9.104;2023-07-02T10:14:55;17.08;;;10.68;;
75634;SDS011;64227;48.724;9.104;2023-07-02T10:17:31;15.32;;;9.48;;
75634;SDS011;64227;48.724;9.104;2023-07-02T10:20:04;13.32;;;9.73;;
75634;SDS011;64227;48.724;9.104;2023-07-02T10:22:45;14.07;;;10.10;;
75634;SDS011;64227;48.724;9.104;2023-07-02T10:25:12;15.60;;;9.88;;
75634;SDS011;64227;48.724;9.104;2023-07-02T10:27:49;17.13;;;9.45;;
75634;SDS011;64227;48.724;9.104;2023-07-02T10:30:14;15.65;;;9.82;;
75634;SDS011;64227;48.724;9.104;2023-07-02T10:32:40;15.88;;;9.73;;
75634;SDS011;64227;48.724;9.104;2023-07-02T10:35:15;14.05;;;9.15;;
75634;SDS011;64227;48.724;9.104;2023-07-02T10:37:41;13.05;;;8.90;;
75634;SDS011;64227;48.724;9.104;2023-07-02T10:40:07;12.80;;;8.82;;
75634;SDS011;64227;48.724;9.104;2023-07-02T10:42:33;12.77;;;8.38;;
75634;SDS011;64227;48.724;9.104;2023-07-02T10:45:01;13.48;;;8.75;;
75634;SDS011;64227;48.724;9.104;2023-07-02T10:47:28;16.33;;;9.45;;
75634;SDS011;64227;48.724;9.104;2023-07-02T10:49:53;13.77;;;9.65;;
75634;SDS011;64227;48.724;9.104;2023-07-02T10:52:18;16.92;;;9.02;;
75634;SDS011;64227;48.724;9.104;2023-07-02T10:54:47;14.38;;;9.38;;
75634;SDS011;64227;48.724;9.104;2023-07-02T10:57:13;14.68;;;9.35;;
75634;SDS011;64227;48.724;9.104;2023-07-02T10:59:41;13.85;;;9.45;;
75634;SDS011;64227;48.724;9.104;2023-07-02T11:02:06;15.05;;;9.48;;
75634;SDS011;64227;48.724;9.104;2023-07-02T11:04:31;15.88;;;9.30;;
75634;SDS011;64227;48.724;9.104;2023-07-02T11:06:57;14.75;;;9.20;;
75634;SDS011;64227;48.724;9.104;2023-07-02T11:09:23;13.50;;;9.43;;
75634;SDS011;64227;48.724;9.104;2023-07-02T11:11:59;15.90;;;9.70;;
75634;SDS011;64227;48.724;9.104;2023-07-02T11:14:26;13.02;;;9.57;;
75634;SDS011;64227;48.724;9.104;2023-07-02T11:16:59;14.25;;;8.55;;
75634;SDS011;64227;48.724;9.104;2023-07-02T11:19:27;12.45;;;8.68;;
75634;SDS011;64227;48.724;9.104;2023-07-02T11:21:53;13.10;;;9.30;;
75634;SDS011;64227;48.724;9.104;2023-07-02T11:24:28;12.65;;;8.85;;
75634;SDS011;64227;48.724;9.104;2023-07-02T11:27:03;15.98;;;9.02;;
75634;SDS011;64227;48.724;9.104;2023-07-02T11:29:33;11.88;;;8.27;;
75634;SDS011;64227;48.724;9.104;2023-07-02T11:32:06;13.10;;;8.65;;
75634;SDS011;64227;48.724;9.104;2023-07-02T11:34:35;10.80;;;7.35;;
75634;SDS011;64227;48.724;9.104;2023-07-02T11:37:01;14.05;;;8.60;;
75634;SDS011;64227;48.724;9.104;2023-07-02T11:39:33;12.57;;;9.23;;
75634;SDS011;64227;48.724;9.104;2023-07-02T11:41:58;14.02;;;9.30;;
75634;SDS011;64227;48.724;9.104;2023-07-02T11:44:29;12.40;;;8.80;;
75634;SDS011;64227;48.724;9.104;2023-07-02T11:46:55;13.77;;;8.65;;
75634;SDS011;64227;48.724;9.104;2023-07-02T11:49:22;15.43;;;9.68;;
75634;SDS011;64227;48.724;9.104;2023-07-02T11:51:47;12.32;;;8.70;;
75634;SDS011;64227;48.724;9.104;2023-07-02T11:54:14;13.30;;;9.07;;
75634;SDS011;64227;48.724;9.104;2023-07-02T11:56:40;13.20;;;9.07;;
75634;SDS011;64227;48.724;9.104;2023-07-02T11:59:07;11.85;;;9.00;;
75634;SDS011;64227;48.724;9.104;2023-07-02T12:01:33;11.25;;;9.02;;
75634;SDS011;64227;48.724;9.104;2023-07-02T12:03:58;13.07;;;9.55;;
75634;SDS011;64227;48.724;9.104;2023-07-02T12:06:24;14.07;;;8.88;;
75634;SDS011;64227;48.724;9.104;2023-07-02T12:08:49;15.30;;;9.45;;
75634;SDS011;64227;48.724;9.104;2023-07-02T12:11:14;12.48;;;9.20;;
75634;SDS011;64227;48.724;9.104;2023-07-02T12:13:40;11.73;;;9.18;;
75634;SDS011;64227;48.724;9.104;2023-07-02T12:16:06;13.48;;;9.30;;
75634;SDS011;64227;48.724;9.104;2023-07-02T12:18:31;13.80;;;8.30;;
75634;SDS011;64227;48.724;9.104;2023-07-02T12:20:56;15.00;;;9.20;;
75634;SDS011;64227;48.724;9.104;2023-07-02T12:23:22;12.60;;;9.27;;
75634;SDS011;64227;48.724;9.104;2023-07-02T12:25:47;11.35;;;8.65;;
75634;SDS011;64227;48.724;9.104;2023-07-02T12:28:12;13.45;;;8.65;;
75634;SDS011;64227;48.724;9.104;2023-07-02T12:30:38;12.35;;;8.52;;
75634;SDS011;64227;48.724;9.104;2023-07-02T12:33:03;10.52;;;8.55;;
75634;SDS011;64227;48.724;9.104;2023-07-02T12:35:28;13.23;;;8.85;;
75634;SDS011;64227;48.724;9.104;2023-07-02T12:37:54;13.63;;;9.27;;
75634;SDS011;64227;48.724;9.104;2023-07-02T12:40:19;12.90;;;9.25;;
75634;SDS011;64227;48.724;9.104;2023-07-02T12:42:45;13.48;;;8.70;;
75634;SDS011;64227;48.724;9.104;2023-07-02T12:45:11;13.48;;;8.65;;
75634;SDS011;64227;48.724;9.104;2023-07-02T12:47:37;12.75;;;8.90;;
75634;SDS011;64227;48.724;9.104;2023-07-02T12:50:04;14.63;;;8.75;;
75634;SDS011;64227;48.724;9.104;2023-07-02T12:52:30;10.65;;;8.18;;
75634;SDS011;64227;48.724;9.104;2023-07-02T12:54:55;13.07;;;8.85;;
75634;SDS011;64227;48.724;9.104;2023-07-02T12:57:20;12.35;;;9.25;;
75634;SDS011;64227;48.724;9.104;2023-07-02T12:59:46;13.13;;;9.07;;
75634;SDS011;64227;48.724;9.104;2023-07-02T13:02:11;12.75;;;8.95;;
75634;SDS011;64227;48.724;9.104;2023-07-02T13:04:36;12.77;;;9.13;;
75634;SDS011;64227;48.724;9.104;2023-07-02T13:07:03;14.82;;;9.38;;
75634;SDS011;64227;48.724;9.104;2023-07-02T13:09:29;15.38;;;9.65;;
75634;SDS011;64227;48.724;9.104;2023-07-02T13:11:54;12.38;;;9.50;;
75634;SDS011;64227;48.724;9.104;2023-07-02T13:14:19;13.50;;;9.40;;
75634;SDS011;64227;48.724;9.104;2023-07-02T13:16:45;14.90;;;9.80;;
75634;SDS011;64227;48.724;9.104;2023-07-02T13:19:10;14.95;;;8.77;;
75634;SDS011;64227;48.724;9.104;2023-07-02T13:21:36;15.55;;;9.65;;
75634;SDS011;64227;48.724;9.104;2023-07-02T13:24:01;14.38;;;8.68;;
75634;SDS011;64227;48.724;9.104;2023-07-02T13:26:26;13.48;;;8.43;;
75634;SDS011;64227;48.724;9.104;2023-07-02T13:28:52;11.15;;;8.18;;
75634;SDS011;64227;48.724;9.104;2023-07-02T13:31:18;12.23;;;8.63;;
75634;SDS011;64227;48.724;9.104;2023-07-02T13:33:43;10.52;;;8.00;;
75634;SDS011;64227;48.724;9.104;2023-07-02T13:36:09;11.93;;;8.27;;
75634;SDS011;64227;48.724;9.104;2023-07-02T13:38:35;13.15;;;8.20;;
75634;SDS011;64227;48.724;9.104;2023-07-02T13:41:00;11.52;;;8.43;;
75634;SDS011;64227;48.724;9.104;2023-07-02T13:43:26;12.88;;;9.05;;
75634;SDS011;64227;48.724;9.104;2023-07-02T13:45:51;13.80;;;8.90;;
75634;SDS011;64227;48.724;9.104;2023-07-02T13:48:16;11.98;;;8.93;;
75634;SDS011;64227;48.724;9.104;2023-07-02T13:50:42;14.43;;;9.35;;
75634;SDS011;64227;48.724;9.104;2023-07-02T13:53:08;11.75;;;9.02;;
75634;SDS011;64227;48.724;9.104;2023-07-02T13:55:33;11.23;;;8.45;;
75634;SDS011;64227;48.724;9.104;2023-07-02T13:57:58;10.73;;;8.77;;
75634;SDS011;64227;48.724;9.104;2023-07-02T14:00:25;15.32;;;9.20;;
75634;SDS011;64227;48.724;9.104;2023-07-02T14:02:50;13.07;;;8.90;;
75634;SDS011;64227;48.724;9.104;2023-07-02T14:05:15;12.05;;;8.20;;
75634;SDS011;64227;48.724;9.104;2023-07-02T14:07:41;13.38;;;8.57;;
75634;SDS011;64227;48.724;9.104;2023-07-02T14:10:06;13.18;;;8.45;;
75634;SDS011;64227;48.724;9.104;2023-07-02T14:12:32;12.40;;;9.10;;
75634;SDS011;64227;48.724;9.104;2023-07-02T14:14:57;10.57;;;9.07;;
75634;SDS011;64227;48.724;9.104;2023-07-02T14:17:22;15.82;;;9.20;;
75634;SDS011;64227;48.724;9.104;2023-07-02T14:19:48;13.60;;;9.15;;
75634;SDS011;64227;48.724;9.104;2023-07-02T14:22:13;13.98;;;9.57;;
75634;SDS011;64227;48.724;9.104;2023-07-02T14:24:39;12.77;;;9.27;;
75634;SDS011;64227;48.724;9.104;2023-07-02T14:27:04;12.48;;;9.32;;
75634;SDS011;64227;48.724;9.104;2023-07-02T14:29:30;12.43;;;9.48;;
75634;SDS011;64227;48.724;9.104;2023-07-02T14:31:56;16.40;;;12.50;;
75634;SDS011;64227;48.724;9.104;2023-07-02T14:34:21;13.40;;;9.85;;
75634;SDS011;64227;48.724;9.104;2023-07-02T14:36:47;14.55;;;9.38;;